Time;durP1;ratioP1;P1;durP2;ratioP2;P2;SDS_P1;SDS_P2;PMS_P1;PMS_P2;Temp;Humidity;BMP_temperature;BMP_pressure;BME280_temperature;BME280_humidity;BME280_pressure;Samples;Min_cycle;Max_cycle;Signal;HPM_P1;HPM_P2
2023/04/30 00:01:41;;;;;;;10.33;8.10;;;7.70;99.90;;;;;;5052375;28;20184;-79
2023/04/30 00:04:06;;;;;;;10.07;8.10;;;7.80;99.90;;;;;;5068945;28;20177;-79
2023/04/30 00:06:32;;;;;;;10.03;8.57;;;7.90;99.90;;;;;;5052346;28;20230;-79
2023/04/30 00:08:57;;;;;;;9.47;8.47;;;7.70;99.90;;;;;;5052133;28;20280;-79
2023/04/30 00:11:24;;;;;;;12.27;8.40;;;7.80;99.90;;;;;;5052452;28;20639;-79
2023/04/30 00:13:50;;;;;;;10.50;8.60;;;7.70;99.90;;;;;;5053875;28;20180;-79
2023/04/30 00:16:16;;;;;;;10.67;8.20;;;7.70;99.90;;;;;;5053512;28;20171;-79
2023/04/30 00:18:42;;;;;;;9.90;8.57;;;7.70;99.90;;;;;;5052363;28;20279;-79
2023/04/30 00:21:07;;;;;;;10.43;8.43;;;7.70;99.90;;;;;;5052340;28;20176;-79
2023/04/30 00:23:33;;;;;;;10.33;8.60;;;7.70;99.90;;;;;;5052271;28;20212;-78
2023/04/30 00:25:58;;;;;;;8.83;7.93;;;7.70;99.90;;;;;;5052390;28;20172;-79
2023/04/30 00:28:24;;;;;;;8.83;7.73;;;7.60;99.90;;;;;;5051807;28;20185;-78
2023/04/30 00:30:50;;;;;;;9.10;7.90;;;7.70;99.90;;;;;;5051986;28;20222;-79
2023/04/30 00:33:15;;;;;;;8.90;8.00;;;7.70;99.90;;;;;;5052872;28;20170;-79
2023/04/30 00:35:41;;;;;;;9.90;8.30;;;7.70;99.90;;;;;;5053386;28;20219;-79
2023/04/30 00:38:06;;;;;;;9.10;7.80;;;7.80;99.90;;;;;;5052956;28;20304;-79
2023/04/30 00:40:36;;;;;;;9.27;7.77;;;7.70;99.90;;;;;;5051650;28;20201;-79
2023/04/30 00:43:02;;;;;;;9.27;7.77;;;7.70;78.60;;;;;;5051712;28;20225;-79
2023/04/30 00:45:28;;;;;;;11.47;8.73;;;7.60;99.90;;;;;;5052223;28;20268;-79
2023/04/30 00:47:54;;;;;;;9.73;8.17;;;7.50;99.90;;;;;;5051593;28;20244;-79
2023/04/30 00:50:19;;;;;;;11.13;8.87;;;7.50;99.90;;;;;;5068078;28;20219;-79
2023/04/30 00:52:45;;;;;;;8.73;7.83;;;7.40;99.90;;;;;;5051872;28;20180;-79
2023/04/30 00:55:12;;;;;;;11.97;8.80;;;7.40;99.90;;;;;;5053159;28;20191;-79
2023/04/30 00:57:42;;;;;;;10.13;8.27;;;7.50;99.90;;;;;;5052932;28;20211;-79
2023/04/30 01:00:10;;;;;;;9.23;7.90;;;7.40;99.90;;;;;;5052815;28;20204;-79
2023/04/30 01:02:39;;;;;;;10.70;8.47;;;7.40;99.90;;;;;;5051599;28;20173;-79
2023/04/30 01:05:06;;;;;;;8.43;7.57;;;7.40;99.90;;;;;;5052927;28;20168;-79
2023/04/30 01:07:32;;;;;;;10.63;8.00;;;7.30;99.90;;;;;;5051745;28;20179;-79
2023/04/30 01:09:58;;;;;;;10.27;9.00;;;7.30;99.90;;;;;;5068548;28;20194;-79
2023/04/30 01:12:27;;;;;;;9.93;8.50;;;7.20;99.90;;;;;;5068723;28;20179;-79
2023/04/30 01:15:01;;;;;;;9.77;8.50;;;7.20;99.90;;;;;;5068202;28;20238;-79
2023/04/30 01:18:03;;;;;;;9.67;8.60;;;7.10;99.90;;;;;;5051544;28;20391;-79
2023/04/30 01:20:29;;;;;;;10.70;8.17;;;7.20;99.90;;;;;;5050646;28;20681;-78
2023/04/30 01:23:36;;;;;;;9.43;8.27;;;7.40;99.90;;;;;;5051829;28;20175;-79
2023/04/30 01:26:32;;;;;;;10.30;8.07;;;7.50;15.30;;;;;;5051628;28;20253;-79
2023/04/30 01:29:01;;;;;;;9.20;7.73;;;7.40;1.00;;;;;;5051280;28;20203;-78
2023/04/30 01:31:27;;;;;;;9.57;7.87;;;7.30;1.00;;;;;;5068127;28;20221;-78
2023/04/30 01:33:53;;;;;;;8.90;7.67;;;7.40;1.00;;;;;;5051714;28;20170;-79
2023/04/30 01:36:44;;;;;;;10.03;7.50;;;7.40;1.00;;;;;;5052840;28;20182;-80
2023/04/30 01:39:20;;;;;;;9.47;7.90;;;7.40;1.00;;;;;;5047922;28;20208;-79
2023/04/30 01:41:59;;;;;;;9.03;7.33;;;7.30;1.00;;;;;;5067802;28;20216;-79
2023/04/30 01:44:43;;;;;;;8.77;7.87;;;7.30;1.00;;;;;;5052967;28;20188;-79
2023/04/30 01:47:34;;;;;;;8.30;6.97;;;7.20;1.00;;;;;;5056162;28;20641;-79
2023/04/30 01:50:29;;;;;;;8.27;7.47;;;7.10;1.00;;;;;;5054611;28;20196;-79
2023/04/30 01:53:01;;;;;;;8.70;7.80;;;6.90;1.00;;;;;;5002593;28;20234;-79
2023/04/30 01:55:34;;;;;;;9.73;8.10;;;6.70;19.60;;;;;;5056667;28;20168;-79
2023/04/30 01:58:04;;;;;;;9.07;7.50;;;6.70;92.00;;;;;;5055970;28;20217;-79
2023/04/30 02:00:29;;;;;;;9.00;7.57;;;6.60;67.00;;;;;;5055784;28;20664;-79
2023/04/30 02:02:56;;;;;;;9.27;8.13;;;6.50;57.10;;;;;;5056084;28;20225;-79
2023/04/30 02:05:22;;;;;;;8.03;7.23;;;6.60;20.40;;;;;;5054732;28;20215;-79
2023/04/30 02:07:50;;;;;;;7.80;7.00;;;6.70;1.00;;;;;;5054942;28;20208;-79
2023/04/30 02:10:21;;;;;;;8.57;7.67;;;6.70;1.00;;;;;;5055392;28;20680;-78
2023/04/30 02:12:47;;;;;;;8.87;7.60;;;6.80;1.00;;;;;;5054469;28;20171;-78
2023/04/30 02:15:13;;;;;;;7.83;6.63;;;6.60;1.00;;;;;;5055839;28;20236;-79
2023/04/30 02:17:38;;;;;;;8.60;7.50;;;6.40;1.00;;;;;;5071036;28;20200;-79
2023/04/30 02:20:07;;;;;;;9.00;7.13;;;6.30;1.00;;;;;;5055121;28;20201;-79
2023/04/30 02:22:33;;;;;;;9.07;7.67;;;6.10;53.70;;;;;;5054389;28;20173;-79
2023/04/30 02:24:58;;;;;;;10.63;7.90;;;6.10;89.20;;;;;;5054568;28;20525;-78
2023/04/30 02:27:25;;;;;;;8.73;7.53;;;6.20;42.10;;;;;;5055384;28;20183;-79
2023/04/30 02:29:51;;;;;;;9.30;7.87;;;6.10;9.40;;;;;;5070860;28;20267;-78
2023/04/30 02:32:17;;;;;;;10.20;7.53;;;6.30;25.00;;;;;;5054470;28;20189;-79
2023/04/30 02:34:43;;;;;;;9.00;7.40;;;6.30;1.00;;;;;;5054338;28;20264;-79
2023/04/30 02:37:11;;;;;;;9.90;7.50;;;6.20;1.00;;;;;;5053913;28;20252;-79
2023/04/30 02:39:37;;;;;;;8.70;7.53;;;6.20;1.00;;;;;;5053367;28;20201;-78
2023/04/30 02:42:03;;;;;;;9.93;7.37;;;6.10;1.00;;;;;;5054016;28;20170;-78
2023/04/30 02:44:29;;;;;;;9.53;7.70;;;6.20;1.00;;;;;;5054263;28;20264;-79
2023/04/30 02:46:54;;;;;;;8.70;7.03;;;6.30;1.00;;;;;;5054367;28;20265;-79
2023/04/30 02:49:20;;;;;;;8.13;7.20;;;6.20;1.00;;;;;;5055317;28;20197;-79
2023/04/30 02:51:45;;;;;;;8.23;7.03;;;6.20;1.00;;;;;;5053705;28;20264;-79
2023/04/30 02:54:11;;;;;;;8.00;6.90;;;6.20;1.00;;;;;;5070415;28;20166;-79
2023/04/30 02:56:38;;;;;;;8.30;6.97;;;6.20;1.00;;;;;;5054494;28;20176;-79
2023/04/30 02:59:03;;;;;;;7.70;6.80;;;6.20;1.00;;;;;;5053593;28;20237;-79
2023/04/30 03:01:29;;;;;;;8.37;6.97;;;6.20;1.00;;;;;;5053405;28;20598;-79
2023/04/30 03:03:54;;;;;;;7.73;6.60;;;6.20;1.00;;;;;;5055257;28;20215;-79
2023/04/30 03:06:20;;;;;;;8.10;7.03;;;6.30;1.00;;;;;;5053506;28;20218;-79
2023/04/30 03:08:46;;;;;;;8.60;6.87;;;6.30;99.90;;;;;;5053390;28;20404;-79
2023/04/30 03:11:11;;;;;;;8.40;6.90;;;6.20;99.90;;;;;;5054355;28;20311;-79
2023/04/30 03:13:37;;;;;;;8.77;7.10;;;6.00;1.00;;;;;;5017899;28;20186;-79
2023/04/30 03:16:03;;;;;;;9.63;7.90;;;5.80;1.00;;;;;;5014790;28;20179;-79
2023/04/30 03:18:29;;;;;;;8.60;7.70;;;5.80;1.00;;;;;;5013369;28;20209;-79
2023/04/30 03:20:56;;;;;;;8.07;7.27;;;5.80;1.00;;;;;;5029518;28;20192;-79
2023/04/30 03:23:21;;;;;;;8.80;6.93;;;5.80;1.00;;;;;;5013256;28;20237;-79
2023/04/30 03:25:47;;;;;;;8.23;6.63;;;5.80;1.00;;;;;;5013312;28;20183;-79
2023/04/30 03:28:13;;;;;;;7.93;7.13;;;5.90;1.00;;;;;;5014637;28;20179;-80
2023/04/30 03:30:38;;;;;;;8.33;6.93;;;5.90;1.00;;;;;;5029295;28;20665;-79
2023/04/30 03:33:05;;;;;;;9.13;7.30;;;5.70;1.00;;;;;;5013100;28;20186;-79
2023/04/30 03:35:32;;;;;;;8.23;6.93;;;5.60;1.00;;;;;;5014443;28;20163;-78
2023/04/30 03:37:58;;;;;;;8.83;7.27;;;5.60;1.00;;;;;;5013285;28;20260;-79
2023/04/30 03:40:23;;;;;;;8.67;7.40;;;5.70;1.00;;;;;;5014167;28;20198;-79
2023/04/30 03:42:49;;;;;;;8.63;7.27;;;5.50;1.00;;;;;;5013268;28;20168;-79
2023/04/30 03:45:15;;;;;;;11.67;8.00;;;5.50;1.00;;;;;;5014293;28;20197;-79
2023/04/30 03:47:41;;;;;;;9.50;7.33;;;5.50;1.00;;;;;;5012961;28;20225;-79
2023/04/30 03:50:08;;;;;;;10.53;7.37;;;5.40;1.00;;;;;;5014282;28;20198;-79
2023/04/30 03:52:33;;;;;;;8.80;7.37;;;5.40;1.00;;;;;;5013443;28;20182;-79
2023/04/30 03:54:59;;;;;;;9.47;7.00;;;5.40;1.00;;;;;;5014815;28;20182;-80
2023/04/30 03:57:24;;;;;;;6.83;6.13;;;5.50;1.00;;;;;;5013117;28;20336;-79
2023/04/30 03:59:50;;;;;;;5.47;4.97;;;5.50;1.00;;;;;;5014303;28;20585;-79
2023/04/30 04:02:16;;;;;;;5.23;4.83;;;5.60;1.00;;;;;;5012833;28;20185;-79
2023/04/30 04:04:41;;;;;;;4.90;4.50;;;5.50;1.00;;;;;;5012996;28;20186;-79
2023/04/30 04:07:08;;;;;;;4.20;3.90;;;5.50;1.00;;;;;;5013240;28;20276;-80
2023/04/30 04:09:34;;;;;;;5.50;5.00;;;5.40;99.90;;;;;;5012860;28;20204;-79
2023/04/30 04:12:00;;;;;;;5.13;4.73;;;5.10;1.00;;;;;;5014510;28;20174;-79
2023/04/30 04:14:26;;;;;;;5.73;5.23;;;4.90;1.00;;;;;;5014350;28;20176;-80
2023/04/30 04:16:51;;;;;;;6.03;5.43;;;4.80;1.00;;;;;;5013257;28;20201;-79
2023/04/30 04:19:17;;;;;;;6.53;5.70;;;4.60;1.00;;;;;;5013252;28;20258;-79
2023/04/30 04:21:42;;;;;;;6.93;6.23;;;4.60;1.00;;;;;;5012655;28;20221;-79
2023/04/30 04:24:08;;;;;;;7.60;6.23;;;4.60;30.00;;;;;;5014418;28;20307;-79
2023/04/30 04:26:37;;;;;;;6.87;6.20;;;4.50;81.80;;;;;;5013974;28;20255;-79
2023/04/30 04:29:03;;;;;;;6.80;6.17;;;4.60;99.90;;;;;;5014183;28;20299;-79
2023/04/30 04:31:30;;;;;;;7.27;6.13;;;4.40;99.90;;;;;;5014092;28;20200;-79
2023/04/30 04:34:00;;;;;;;9.00;6.50;;;4.40;99.90;;;;;;5014262;28;20180;-79
2023/04/30 04:36:27;;;;;;;7.63;6.70;;;4.40;99.90;;;;;;5012999;28;20175;-79
2023/04/30 04:38:56;;;;;;;7.70;6.80;;;4.40;99.90;;;;;;5013358;28;20286;-80
2023/04/30 04:41:23;;;;;;;6.73;6.13;;;4.50;99.90;;;;;;5011715;28;20168;-80
2023/04/30 04:43:48;;;;;;;12.17;6.90;;;4.50;99.90;;;;;;5013071;28;20187;-80
2023/04/30 04:46:15;;;;;;;9.07;6.77;;;4.60;99.90;;;;;;5012933;28;20180;-81
2023/04/30 04:48:41;;;;;;;10.33;6.33;;;4.70;99.90;;;;;;5011524;28;20187;-82
2023/04/30 04:51:08;;;;;;;7.10;6.40;;;4.70;72.50;;;;;;5012872;28;20196;-80
2023/04/30 04:53:33;;;;;;;11.90;7.10;;;4.70;94.90;;;;;;5011717;28;20186;-80
2023/04/30 04:55:59;;;;;;;10.20;6.27;;;4.80;55.30;;;;;;5011677;28;20309;-80
2023/04/30 04:58:25;;;;;;;8.97;6.50;;;4.90;31.10;;;;;;5011522;28;20216;-80
2023/04/30 05:00:51;;;;;;;10.10;6.43;;;4.80;67.50;;;;;;5134766;22;20686;-85
2023/04/30 05:03:19;;;;;;;7.63;6.60;;;4.70;99.90;;;;;;5103414;28;20628;-85
2023/04/30 05:05:45;;;;;;;7.53;6.63;;;4.60;99.90;;;;;;5092256;28;20264;-80
2023/04/30 05:08:11;;;;;;;7.27;6.50;;;4.50;99.90;;;;;;5092402;28;20216;-80
2023/04/30 05:10:37;;;;;;;7.17;6.30;;;4.50;99.90;;;;;;5091831;28;20192;-80
2023/04/30 05:13:02;;;;;;;8.63;6.50;;;4.50;99.90;;;;;;5100343;28;20652;-78
2023/04/30 05:15:28;;;;;;;9.73;6.93;;;4.40;99.90;;;;;;5112568;28;20231;-80
2023/04/30 05:17:54;;;;;;;11.63;6.40;;;4.30;99.90;;;;;;5112997;28;20658;-80
2023/04/30 05:20:19;;;;;;;8.23;6.73;;;4.30;99.90;;;;;;5115129;28;20283;-80
2023/04/30 05:22:45;;;;;;;8.57;7.37;;;4.40;99.90;;;;;;5116416;28;20169;-81
2023/04/30 05:25:11;;;;;;;9.70;7.67;;;4.50;99.90;;;;;;5118098;28;20211;-80
2023/04/30 05:27:36;;;;;;;7.23;6.40;;;5.30;99.90;;;;;;5116610;28;20201;-80
2023/04/30 05:30:02;;;;;;;8.40;6.63;;;5.90;99.90;;;;;;5117446;28;20199;-81
2023/04/30 05:32:28;;;;;;;8.03;6.70;;;6.10;99.90;;;;;;5118315;28;20651;-81
2023/04/30 05:34:53;;;;;;;7.73;6.17;;;5.80;1.00;;;;;;5116514;28;20177;-80
2023/04/30 05:37:21;;;;;;;7.00;6.40;;;5.50;1.00;;;;;;5116152;28;20246;-80
2023/04/30 05:39:47;;;;;;;9.27;7.27;;;5.30;99.90;;;;;;5116463;28;20213;-81
2023/04/30 05:42:12;;;;;;;8.53;6.80;;;5.10;99.90;;;;;;5117232;28;20165;-83
2023/04/30 05:44:38;;;;;;;7.50;6.60;;;5.10;99.90;;;;;;5115661;28;20173;-82
2023/04/30 05:47:04;;;;;;;11.40;7.83;;;5.10;99.90;;;;;;5116738;28;20165;-82
2023/04/30 05:49:30;;;;;;;15.03;8.53;;;5.20;99.90;;;;;;5116513;28;20193;-83
2023/04/30 05:51:55;;;;;;;24.63;12.10;;;5.20;99.90;;;;;;5116531;28;20176;-83
2023/04/30 05:54:21;;;;;;;22.17;9.17;;;5.30;99.90;;;;;;5115303;28;20177;-82
2023/04/30 05:56:46;;;;;;;22.60;9.47;;;5.40;99.90;;;;;;5115214;28;20177;-83
2023/04/30 05:59:12;;;;;;;22.73;9.43;;;5.50;99.90;;;;;;5116146;28;20306;-83
2023/04/30 06:01:38;;;;;;;66.70;10.73;;;5.70;99.90;;;;;;5116720;28;20530;-81
2023/04/30 06:04:04;;;;;;;25.97;10.10;;;5.80;99.90;;;;;;5116467;28;20662;-83
2023/04/30 06:06:30;;;;;;;29.63;9.33;;;5.90;99.90;;;;;;5115046;28;20174;-81
2023/04/30 06:08:56;;;;;;;28.27;9.70;;;6.00;99.90;;;;;;5115905;27;20173;-81
2023/04/30 06:11:24;;;;;;;16.57;9.63;;;6.20;99.90;;;;;;5115973;28;20175;-82
2023/04/30 06:13:50;;;;;;;29.33;10.27;;;6.20;99.90;;;;;;5114727;28;20178;-81
2023/04/30 06:16:15;;;;;;;17.77;9.97;;;6.40;99.90;;;;;;5115977;28;20183;-81
2023/04/30 06:18:41;;;;;;;18.73;11.07;;;6.50;99.90;;;;;;5114366;28;20220;-82
2023/04/30 06:21:06;;;;;;;12.37;9.33;;;6.60;99.90;;;;;;5114367;28;20679;-83
2023/04/30 06:23:32;;;;;;;12.23;10.03;;;6.70;99.90;;;;;;5114024;28;20652;-83
2023/04/30 06:25:58;;;;;;;11.40;9.63;;;6.70;99.90;;;;;;5114796;28;20600;-82
2023/04/30 06:28:23;;;;;;;12.43;10.33;;;6.80;99.90;;;;;;5115410;28;20171;-82
2023/04/30 06:30:49;;;;;;;12.63;10.27;;;6.90;99.90;;;;;;5112376;28;20206;-82
2023/04/30 06:33:15;;;;;;;13.10;10.37;;;6.90;99.90;;;;;;5117100;28;20319;-82
2023/04/30 06:35:41;;;;;;;12.63;10.57;;;7.00;99.90;;;;;;5115191;28;20227;-86
2023/04/30 06:38:06;;;;;;;14.07;11.17;;;7.00;99.90;;;;;;5114906;28;20194;-81
2023/04/30 06:40:32;;;;;;;14.27;11.60;;;7.10;99.90;;;;;;5113776;28;20191;-82
2023/04/30 06:42:57;;;;;;;13.30;10.90;;;7.20;99.90;;;;;;5112957;28;20189;-82
2023/04/30 06:45:23;;;;;;;13.60;11.07;;;7.40;99.90;;;;;;5111929;28;20172;-82
2023/04/30 06:47:49;;;;;;;15.47;11.57;;;7.50;99.90;;;;;;5112132;28;20738;-82
2023/04/30 06:50:14;;;;;;;14.43;11.37;;;7.60;99.90;;;;;;5112786;28;20327;-82
2023/04/30 06:52:40;;;;;;;12.83;9.90;;;7.80;99.90;;;;;;5113373;28;20183;-82
2023/04/30 06:55:06;;;;;;;12.27;10.33;;;8.00;99.90;;;;;;5111762;28;20266;-82
2023/04/30 06:57:32;;;;;;;16.27;12.53;;;8.10;99.90;;;;;;5113996;28;20208;-81
2023/04/30 06:59:58;;;;;;;14.97;11.83;;;8.30;99.90;;;;;;5114703;28;20207;-82
2023/04/30 07:02:24;;;;;;;15.73;11.93;;;8.40;99.90;;;;;;5113601;28;20160;-81
2023/04/30 07:04:49;;;;;;;14.60;10.97;;;8.50;99.90;;;;;;5114866;28;20178;-81
2023/04/30 07:07:15;;;;;;;11.33;8.87;;;8.60;99.90;;;;;;5113418;28;20529;-81
2023/04/30 07:09:41;;;;;;;12.77;10.00;;;8.70;99.90;;;;;;5113222;28;20255;-81
2023/04/30 07:12:06;;;;;;;13.43;11.13;;;8.80;99.90;;;;;;5113263;28;20266;-81
2023/04/30 07:14:32;;;;;;;13.20;10.17;;;9.00;99.90;;;;;;5113446;28;20176;-82
2023/04/30 07:16:57;;;;;;;13.57;10.33;;;9.10;99.90;;;;;;5113398;28;20173;-80
2023/04/30 07:19:25;;;;;;;14.07;10.70;;;9.20;99.90;;;;;;5114150;28;20196;-81
2023/04/30 07:21:51;;;;;;;10.67;8.33;;;9.30;99.90;;;;;;5114118;28;20177;-82
2023/04/30 07:24:17;;;;;;;12.87;9.70;;;9.40;99.90;;;;;;5114521;28;20174;-82
2023/04/30 07:26:42;;;;;;;11.20;8.90;;;9.50;99.90;;;;;;5112909;28;20666;-82
2023/04/30 07:29:08;;;;;;;12.23;9.47;;;9.60;99.90;;;;;;5113168;28;20578;-82
2023/04/30 07:31:33;;;;;;;12.37;9.70;;;9.60;99.90;;;;;;5112479;28;20171;-82
2023/04/30 07:33:59;;;;;;;11.83;8.43;;;9.60;99.90;;;;;;5112823;28;20174;-82
2023/04/30 07:36:26;;;;;;;9.53;7.37;;;9.70;94.20;;;;;;5112903;28;20208;-82
2023/04/30 07:38:52;;;;;;;7.93;7.13;;;9.80;1.00;;;;;;5113978;28;20207;-82
2023/04/30 07:41:17;;;;;;;11.03;7.47;;;9.90;1.00;;;;;;5112606;28;20224;-82
2023/04/30 07:43:43;;;;;;;10.13;7.70;;;10.10;1.00;;;;;;5112931;28;20166;-81
2023/04/30 07:46:08;;;;;;;7.83;6.70;;;10.20;1.00;;;;;;5112789;28;20220;-82
2023/04/30 07:48:34;;;;;;;7.07;6.37;;;10.40;1.00;;;;;;5112832;28;20257;-81
2023/04/30 07:51:00;;;;;;;7.53;6.63;;;10.40;1.00;;;;;;5112390;28;20191;-81
2023/04/30 07:53:25;;;;;;;9.00;6.20;;;10.50;1.00;;;;;;5113614;28;20198;-81
2023/04/30 07:55:51;;;;;;;6.90;6.17;;;10.70;99.90;;;;;;5112802;28;20159;-82
2023/04/30 07:58:16;;;;;;;7.67;5.90;;;10.80;1.00;;;;;;5112524;28;20686;-82
2023/04/30 08:00:42;;;;;;;8.73;6.40;;;10.80;1.00;;;;;;5113279;28;20210;-82
2023/04/30 08:03:08;;;;;;;7.50;5.63;;;10.80;1.00;;;;;;5112539;28;20179;-82
2023/04/30 08:05:33;;;;;;;6.33;5.03;;;10.90;1.00;;;;;;5112210;28;20182;-82
2023/04/30 08:07:59;;;;;;;8.37;5.00;;;11.10;1.00;;;;;;5112404;28;20660;-82
2023/04/30 08:10:25;;;;;;;6.20;4.80;;;11.20;99.90;;;;;;5112241;28;20274;-82
2023/04/30 08:12:51;;;;;;;7.97;5.07;;;11.40;1.00;;;;;;5113577;28;20201;-82
2023/04/30 08:15:20;;;;;;;5.00;4.40;;;11.50;1.00;;;;;;5113639;28;20175;-82
2023/04/30 08:17:48;;;;;;;4.97;4.47;;;11.50;99.90;;;;;;5111816;28;20202;-81
2023/04/30 08:20:13;;;;;;;5.17;4.17;;;11.60;99.90;;;;;;5113331;28;20727;-82
2023/04/30 08:22:39;;;;;;;6.20;4.13;;;11.60;1.00;;;;;;5111987;28;20171;-81
2023/04/30 08:25:05;;;;;;;4.37;3.63;;;11.70;99.90;;;;;;5112086;28;20172;-82
2023/04/30 08:27:31;;;;;;;3.93;3.53;;;11.90;86.80;;;;;;5112132;28;20171;-81
2023/04/30 08:29:57;;;;;;;4.17;3.07;;;12.00;1.00;;;;;;5112093;28;20573;-82
2023/04/30 08:32:22;;;;;;;3.87;2.63;;;12.20;99.90;;;;;;5111983;28;20171;-81
2023/04/30 08:34:48;;;;;;;3.10;2.47;;;12.30;99.90;;;;;;5113232;28;20203;-81
2023/04/30 08:37:14;;;;;;;3.37;2.40;;;12.40;1.00;;;;;;5112623;28;20183;-84
2023/04/30 08:39:40;;;;;;;2.20;2.00;;;12.50;1.00;;;;;;5111778;28;20191;-82
2023/04/30 08:42:08;;;;;;;2.97;2.30;;;12.70;1.00;;;;;;5111900;28;20173;-82
2023/04/30 08:44:36;;;;;;;2.10;1.90;;;12.90;1.00;;;;;;5113445;28;20195;-81
2023/04/30 08:47:03;;;;;;;1.73;1.50;;;13.10;1.00;;;;;;5111893;28;20256;-82
2023/04/30 08:49:31;;;;;;;1.73;1.40;;;13.30;99.90;;;;;;5115108;28;20234;-81
2023/04/30 08:51:59;;;;;;;1.90;1.60;;;13.20;1.00;;;;;;5115884;28;20228;-82
2023/04/30 08:54:27;;;;;;;2.20;1.50;;;13.20;99.90;;;;;;5114528;28;20168;-82
2023/04/30 08:56:52;;;;;;;1.83;1.30;;;13.40;2.80;;;;;;5119636;27;20171;-82
2023/04/30 08:59:18;;;;;;;1.40;1.23;;;13.60;1.00;;;;;;5118466;28;20592;-82
2023/04/30 09:01:44;;;;;;;1.60;1.10;;;13.70;1.00;;;;;;5119641;28;20646;-81
2023/04/30 09:04:10;;;;;;;2.00;1.37;;;13.80;1.00;;;;;;5118568;28;20168;-82
2023/04/30 09:06:36;;;;;;;2.23;1.33;;;13.90;1.00;;;;;;5119873;27;20278;-82
2023/04/30 09:09:12;;;;;;;1.17;1.07;;;13.90;99.90;;;;;;5119312;28;20171;-81
2023/04/30 09:11:37;;;;;;;2.83;1.10;;;14.10;1.00;;;;;;5118578;28;20194;-81
2023/04/30 09:14:03;;;;;;;1.10;1.00;;;14.30;1.00;;;;;;5120170;28;20175;-81
2023/04/30 09:16:43;;;;;;;0.80;0.80;;;14.50;1.00;;;;;;5119382;28;20175;-80
2023/04/30 09:19:21;;;;;;;1.63;1.00;;;14.70;99.90;;;;;;5118532;28;20199;-80
2023/04/30 09:21:46;;;;;;;1.90;1.07;;;14.70;1.00;;;;;;5118453;28;20175;-81
2023/04/30 09:24:12;;;;;;;0.80;0.80;;;14.90;99.90;;;;;;5118755;28;20170;-81
2023/04/30 09:26:38;;;;;;;0.90;0.90;;;14.90;99.90;;;;;;5119132;28;20220;-81
2023/04/30 09:29:07;;;;;;;0.90;0.80;;;15.20;99.90;;;;;;5118749;28;20172;-80
2023/04/30 09:31:34;;;;;;;1.07;0.80;;;15.30;96.20;;;;;;5120055;27;20175;-81
2023/04/30 09:34:00;;;;;;;0.70;0.70;;;15.40;99.90;;;;;;5119962;27;20661;-81
2023/04/30 09:36:26;;;;;;;0.70;0.70;;;15.30;31.70;;;;;;5119526;28;20179;-80
2023/04/30 09:38:52;;;;;;;1.07;0.93;;;15.50;1.00;;;;;;5119094;28;20230;-81
2023/04/30 09:41:22;;;;;;;1.00;0.90;;;15.60;99.90;;;;;;5119068;28;20167;-81
2023/04/30 09:43:48;;;;;;;0.73;0.60;;;15.90;99.90;;;;;;5119572;28;20175;-81
2023/04/30 09:46:13;;;;;;;1.43;0.80;;;16.00;19.40;;;;;;5119465;28;20168;-82
2023/04/30 09:48:40;;;;;;;0.90;0.70;;;16.10;99.90;;;;;;5119272;28;20287;-81
2023/04/30 09:51:06;;;;;;;0.73;0.70;;;16.10;15.60;;;;;;5118904;28;20196;-82
2023/04/30 09:53:36;;;;;;;0.97;0.83;;;16.20;99.90;;;;;;5119526;28;20183;-81
2023/04/30 09:56:06;;;;;;;3.20;0.90;;;16.30;38.00;;;;;;5120359;27;20619;-83
2023/04/30 09:58:37;;;;;;;1.33;0.87;;;16.40;99.90;;;;;;5120838;27;20206;-80
2023/04/30 10:01:07;;;;;;;1.03;0.93;;;16.40;1.00;;;;;;5121927;28;20203;-82
2023/04/30 10:03:34;;;;;;;1.13;0.93;;;16.50;79.30;;;;;;5123853;27;20274;-82
2023/04/30 10:06:00;;;;;;;1.00;1.00;;;16.60;19.60;;;;;;5119386;27;20176;-82
2023/04/30 10:08:30;;;;;;;1.00;0.90;;;16.70;1.00;;;;;;5118528;28;20248;-82
2023/04/30 10:11:06;;;;;;;1.67;0.90;;;16.90;1.00;;;;;;5117688;28;20192;-82
2023/04/30 10:13:42;;;;;;;0.80;0.70;;;17.00;1.00;;;;;;5119399;28;20209;-82
2023/04/30 10:16:18;;;;;;;0.70;0.70;;;17.10;1.00;;;;;;5116294;28;20180;-82
2023/04/30 10:18:49;;;;;;;0.70;0.70;;;17.20;1.00;;;;;;5116644;28;20207;-82
2023/04/30 10:21:16;;;;;;;1.30;0.90;;;17.10;1.00;;;;;;5115987;28;20192;-82
2023/04/30 10:23:43;;;;;;;0.93;0.80;;;17.20;1.00;;;;;;5117622;28;20585;-81
2023/04/30 10:26:11;;;;;;;1.00;0.90;;;17.20;1.00;;;;;;5117393;28;20168;-81
2023/04/30 10:28:37;;;;;;;1.43;0.90;;;17.20;1.00;;;;;;5117310;28;20564;-81
2023/04/30 10:31:04;;;;;;;1.00;0.90;;;17.20;1.00;;;;;;5115838;28;20570;-81
2023/04/30 10:33:48;;;;;;;1.40;1.03;;;17.30;1.00;;;;;;5117386;28;20179;-81
2023/04/30 10:36:23;;;;;;;1.43;1.30;;;17.30;1.00;;;;;;5115295;28;20183;-83
2023/04/30 10:38:49;;;;;;;3.50;2.43;;;17.40;1.00;;;;;;5115519;28;20205;-83
2023/04/30 10:41:14;;;;;;;1.10;1.00;;;17.20;43.40;;;;;;5117463;28;20564;-84
2023/04/30 10:43:40;;;;;;;2.73;1.57;;;17.50;1.00;;;;;;5118070;28;20658;-82
2023/04/30 10:46:07;;;;;;;1.40;1.10;;;17.50;62.60;;;;;;5115293;28;20228;-82
2023/04/30 10:48:34;;;;;;;1.20;1.10;;;17.70;1.00;;;;;;5115098;28;20218;-82
2023/04/30 10:51:00;;;;;;;2.90;1.47;;;18.00;1.00;;;;;;5116192;28;20187;-82
2023/04/30 10:53:30;;;;;;;1.67;1.10;;;18.20;1.00;;;;;;5116891;28;20215;-82
2023/04/30 10:56:07;;;;;;;2.43;1.20;;;18.20;1.00;;;;;;5115328;28;20315;-82
2023/04/30 10:58:35;;;;;;;1.30;1.20;;;18.40;1.00;;;;;;5114542;28;20436;-82
2023/04/30 11:01:12;;;;;;;1.60;1.20;;;18.80;1.00;;;;;;5110098;22;20257;-81
2023/04/30 11:03:41;;;;;;;1.40;1.20;;;18.60;1.00;;;;;;5074643;28;20240;-80
2023/04/30 11:06:09;;;;;;;1.93;1.20;;;18.50;1.00;;;;;;5074089;28;20177;-81
2023/04/30 11:08:36;;;;;;;1.90;1.70;;;18.70;1.00;;;;;;5073609;28;20173;-80
2023/04/30 11:11:03;;;;;;;1.53;1.30;;;18.80;1.00;;;;;;5072966;28;20192;-81
2023/04/30 11:13:42;;;;;;;2.70;1.30;;;18.90;1.00;;;;;;5074632;28;20173;-81
2023/04/30 11:16:08;;;;;;;1.67;1.37;;;18.90;1.00;;;;;;5069303;28;20193;-80
2023/04/30 11:18:39;;;;;;;1.70;1.20;;;18.90;1.00;;;;;;5065785;28;20205;-81
2023/04/30 11:21:08;;;;;;;1.53;1.20;;;18.80;1.00;;;;;;5074267;28;20192;-81
2023/04/30 11:23:34;;;;;;;1.90;1.10;;;19.00;1.00;;;;;;5069820;28;20200;-80
2023/04/30 11:26:00;;;;;;;1.20;1.10;;;19.10;1.00;;;;;;5074463;28;20161;-80
2023/04/30 11:28:27;;;;;;;1.87;1.23;;;18.90;1.00;;;;;;5072528;28;20172;-80
2023/04/30 11:30:53;;;;;;;1.43;1.10;;;18.90;1.00;;;;;;5071477;28;20193;-80
2023/04/30 11:33:19;;;;;;;1.30;1.20;;;19.20;1.00;;;;;;5064176;28;20273;-80
2023/04/30 11:35:44;;;;;;;1.40;1.20;;;19.40;1.00;;;;;;5073857;28;20686;-81
2023/04/30 11:38:12;;;;;;;2.17;1.40;;;19.40;1.00;;;;;;5073474;28;20200;-80
2023/04/30 11:40:39;;;;;;;1.50;1.20;;;18.80;1.00;;;;;;5072157;28;20597;-80
2023/04/30 11:43:04;;;;;;;1.23;1.13;;;19.30;1.00;;;;;;5073679;28;20562;-80
2023/04/30 11:45:30;;;;;;;1.30;1.20;;;19.80;1.00;;;;;;5072394;28;20639;-80
2023/04/30 11:47:56;;;;;;;1.30;1.03;;;20.00;99.90;;;;;;5073608;28;20256;-80
2023/04/30 11:50:27;;;;;;;1.10;1.00;;;19.90;1.00;;;;;;5072790;28;20671;-78
2023/04/30 11:52:55;;;;;;;1.10;1.00;;;19.90;99.90;;;;;;5065566;28;20663;-77
2023/04/30 11:55:22;;;;;;;1.27;1.17;;;20.00;99.90;;;;;;5069723;28;20207;-77
2023/04/30 11:57:50;;;;;;;3.35;1.15;;;20.20;99.90;;;;;;5073001;28;20197;-78
2023/04/30 12:00:18;;;;;;;1.37;1.10;;;20.20;99.90;;;;;;5078733;28;20211;-82
2023/04/30 12:02:45;;;;;;;1.40;1.30;;;19.70;99.90;;;;;;5073012;28;20165;-77
2023/04/30 12:05:19;;;;;;;1.47;1.37;;;19.90;99.90;;;;;;5071459;28;20169;-77
2023/04/30 12:07:49;;;;;;;2.42;1.40;;;20.00;99.90;;;;;;5072505;28;20661;-77
2023/04/30 12:10:15;;;;;;;1.50;1.40;;;20.20;1.00;;;;;;5070935;28;20196;-78
2023/04/30 12:12:44;;;;;;;1.30;1.20;;;20.30;99.90;;;;;;5072591;28;20245;-77
2023/04/30 12:15:17;;;;;;;1.35;1.23;;;20.20;99.90;;;;;;5070831;28;20177;-78
2023/04/30 12:17:44;;;;;;;1.63;1.13;;;20.30;99.90;;;;;;5072396;28;20193;-78
2023/04/30 12:20:12;;;;;;;1.23;1.05;;;20.30;99.90;;;;;;5072043;28;20204;-77
2023/04/30 12:22:38;;;;;;;1.38;1.08;;;20.20;99.90;;;;;;5072339;28;20172;-78
2023/04/30 12:25:12;;;;;;;1.10;1.00;;;20.40;99.90;;;;;;5070849;28;20237;-77
2023/04/30 12:27:41;;;;;;;0.95;0.95;;;20.60;99.90;;;;;;5070900;28;20180;-78
2023/04/30 12:30:08;;;;;;;1.73;1.00;;;20.70;99.90;;;;;;5071380;28;20581;-77
2023/04/30 12:32:41;;;;;;;0.98;0.98;;;20.80;99.90;;;;;;5070896;28;20196;-77
2023/04/30 12:35:12;;;;;;;1.17;1.00;;;20.90;99.90;;;;;;5072015;28;20758;-78
2023/04/30 12:37:42;;;;;;;1.55;0.98;;;20.10;99.90;;;;;;5071941;28;20224;-78
2023/04/30 12:40:08;;;;;;;1.10;1.00;;;20.30;99.90;;;;;;5070630;28;20193;-77
2023/04/30 12:42:34;;;;;;;1.00;0.90;;;20.60;99.90;;;;;;5071910;28;20268;-78
2023/04/30 12:45:00;;;;;;;0.90;0.90;;;20.80;99.90;;;;;;5071936;28;20165;-77
2023/04/30 12:47:26;;;;;;;1.05;1.00;;;20.60;99.90;;;;;;5071963;28;20173;-78
2023/04/30 12:49:52;;;;;;;0.93;0.80;;;20.60;99.90;;;;;;5070467;28;20271;-78
2023/04/30 12:52:23;;;;;;;1.33;1.00;;;20.90;99.90;;;;;;5070649;28;20276;-77
2023/04/30 12:54:48;;;;;;;1.00;0.90;;;21.20;99.90;;;;;;5072008;28;20196;-77